sensor_id;sensor_type;location;lat;lon;timestamp;P1;P2;P0
47081;PMS5003;33066;49.296;14.470;2023-06-04T00:01:08;8;7;
47081;PMS5003;33066;49.296;14.470;2023-06-04T00:03:34;6;6;
47081;PMS5003;33066;49.296;14.470;2023-06-04T00:05:59;6;6;
47081;PMS5003;33066;49.296;14.470;2023-06-04T00:08:24;8;8;
47081;PMS5003;33066;49.296;14.470;2023-06-04T00:10:50;12;9;
47081;PMS5003;33066;49.296;14.470;2023-06-04T00:13:16;12;9;
47081;PMS5003;33066;49.296;14.470;2023-06-04T00:15:41;9;9;
47081;PMS5003;33066;49.296;14.470;2023-06-04T00:18:06;8;8;
47081;PMS5003;33066;49.296;14.470;2023-06-04T00:20:32;9;9;
47081;PMS5003;33066;49.296;14.470;2023-06-04T00:22:57;9;9;
47081;PMS5003;33066;49.296;14.470;2023-06-04T00:25:23;8;8;
47081;PMS5003;33066;49.296;14.470;2023-06-04T00:27:48;8;8;
47081;PMS5003;33066;49.296;14.470;2023-06-04T00:30:14;6;6;
47081;PMS5003;33066;49.296;14.470;2023-06-04T00:32:39;8;6;
47081;PMS5003;33066;49.296;14.470;2023-06-04T00:35:04;8;7;
47081;PMS5003;33066;49.296;14.470;2023-06-04T00:37:29;10;9;
47081;PMS5003;33066;49.296;14.470;2023-06-04T00:39:55;8;7;
47081;PMS5003;33066;49.296;14.470;2023-06-04T00:42:20;7;7;
47081;PMS5003;33066;49.296;14.470;2023-06-04T00:44:45;12;7;
47081;PMS5003;33066;49.296;14.470;2023-06-04T00:47:11;10;7;
47081;PMS5003;33066;49.296;14.470;2023-06-04T00:49:36;8;7;
47081;PMS5003;33066;49.296;14.470;2023-06-04T00:52:01;5;4;
47081;PMS5003;33066;49.296;14.470;2023-06-04T00:54:26;6;5;
47081;PMS5003;33066;49.296;14.470;2023-06-04T00:56:51;7;7;
47081;PMS5003;33066;49.296;14.470;2023-06-04T00:59:17;5;5;
47081;PMS5003;33066;49.296;14.470;2023-06-04T01:01:44;9;9;
47081;PMS5003;33066;49.296;14.470;2023-06-04T01:04:09;7;6;
47081;PMS5003;33066;49.296;14.470;2023-06-04T01:06:35;10;6;
47081;PMS5003;33066;49.296;14.470;2023-06-04T01:08:59;10;9;
47081;PMS5003;33066;49.296;14.470;2023-06-04T01:11:30;7;7;
47081;PMS5003;33066;49.296;14.470;2023-06-04T01:13:49;7;7;
47081;PMS5003;33066;49.296;14.470;2023-06-04T01:16:14;7;6;
47081;PMS5003;33066;49.296;14.470;2023-06-04T01:18:40;15;15;
47081;PMS5003;33066;49.296;14.470;2023-06-04T01:21:06;9;9;
47081;PMS5003;33066;49.296;14.470;2023-06-04T01:23:33;9;9;
47081;PMS5003;33066;49.296;14.470;2023-06-04T01:25:56;3;3;
47081;PMS5003;33066;49.296;14.470;2023-06-04T01:28:21;9;8;
47081;PMS5003;33066;49.296;14.470;2023-06-04T01:30:46;7;6;
47081;PMS5003;33066;49.296;14.470;2023-06-04T01:33:12;8;5;
47081;PMS5003;33066;49.296;14.470;2023-06-04T01:35:36;8;8;
47081;PMS5003;33066;49.296;14.470;2023-06-04T01:38:02;6;5;
47081;PMS5003;33066;49.296;14.470;2023-06-04T01:40:27;5;5;
47081;PMS5003;33066;49.296;14.470;2023-06-04T01:42:52;7;5;
47081;PMS5003;33066;49.296;14.470;2023-06-04T01:45:17;10;8;
47081;PMS5003;33066;49.296;14.470;2023-06-04T01:47:42;5;4;
47081;PMS5003;33066;49.296;14.470;2023-06-04T01:50:08;5;5;
47081;PMS5003;33066;49.296;14.470;2023-06-04T01:52:33;6;6;
47081;PMS5003;33066;49.296;14.470;2023-06-04T01:54:58;6;6;
47081;PMS5003;33066;49.296;14.470;2023-06-04T01:57:23;8;7;
47081;PMS5003;33066;49.296;14.470;2023-06-04T01:59:49;11;8;
47081;PMS5003;33066;49.296;14.470;2023-06-04T02:02:14;9;7;
47081;PMS5003;33066;49.296;14.470;2023-06-04T02:04:39;8;5;
47081;PMS5003;33066;49.296;14.470;2023-06-04T02:07:05;9;7;
47081;PMS5003;33066;49.296;14.470;2023-06-04T02:09:30;10;10;
47081;PMS5003;33066;49.296;14.470;2023-06-04T02:11:55;9;8;
47081;PMS5003;33066;49.296;14.470;2023-06-04T02:14:20;5;4;
47081;PMS5003;33066;49.296;14.470;2023-06-04T02:16:46;7;6;
47081;PMS5003;33066;49.296;14.470;2023-06-04T02:19:11;7;6;
47081;PMS5003;33066;49.296;14.470;2023-06-04T02:21:36;4;4;
47081;PMS5003;33066;49.296;14.470;2023-06-04T02:24:01;6;6;
47081;PMS5003;33066;49.296;14.470;2023-06-04T02:26:27;7;7;
47081;PMS5003;33066;49.296;14.470;2023-06-04T02:28:52;9;6;
47081;PMS5003;33066;49.296;14.470;2023-06-04T02:31:18;9;8;
47081;PMS5003;33066;49.296;14.470;2023-06-04T02:33:43;11;8;
47081;PMS5003;33066;49.296;14.470;2023-06-04T02:36:09;6;6;
47081;PMS5003;33066;49.296;14.470;2023-06-04T02:38:34;9;6;
47081;PMS5003;33066;49.296;14.470;2023-06-04T02:40:59;10;10;
47081;PMS5003;33066;49.296;14.470;2023-06-04T02:43:25;8;5;
47081;PMS5003;33066;49.296;14.470;2023-06-04T02:45:50;7;7;
47081;PMS5003;33066;49.296;14.470;2023-06-04T02:48:15;8;7;
47081;PMS5003;33066;49.296;14.470;2023-06-04T02:50:40;8;7;
47081;PMS5003;33066;49.296;14.470;2023-06-04T02:53:06;7;6;
47081;PMS5003;33066;49.296;14.470;2023-06-04T02:55:31;9;6;
47081;PMS5003;33066;49.296;14.470;2023-06-04T02:57:57;8;8;
47081;PMS5003;33066;49.296;14.470;2023-06-04T03:00:22;9;7;
47081;PMS5003;33066;49.296;14.470;2023-06-04T03:02:47;7;7;
47081;PMS5003;33066;49.296;14.470;2023-06-04T03:05:13;6;6;
47081;PMS5003;33066;49.296;14.470;2023-06-04T03:07:38;9;5;
47081;PMS5003;33066;49.296;14.470;2023-06-04T03:10:04;6;6;
47081;PMS5003;33066;49.296;14.470;2023-06-04T03:12:59;5;5;
47081;PMS5003;33066;49.296;14.470;2023-06-04T03:15:24;7;6;
47081;PMS5003;33066;49.296;14.470;2023-06-04T03:17:50;7;7;
47081;PMS5003;33066;49.296;14.470;2023-06-04T03:20:15;6;6;
47081;PMS5003;33066;49.296;14.470;2023-06-04T03:22:41;41;36;
47081;PMS5003;33066;49.296;14.470;2023-06-04T03:25:06;63;54;
47081;PMS5003;33066;49.296;14.470;2023-06-04T03:27:32;126;107;
47081;PMS5003;33066;49.296;14.470;2023-06-04T03:29:57;49;47;
47081;PMS5003;33066;49.296;14.470;2023-06-04T03:32:22;150;144;
47081;PMS5003;33066;49.296;14.470;2023-06-04T03:34:47;92;83;
47081;PMS5003;33066;49.296;14.470;2023-06-04T03:37:13;32;25;
47081;PMS5003;33066;49.296;14.470;2023-06-04T03:39:39;28;25;
47081;PMS5003;33066;49.296;14.470;2023-06-04T03:42:04;26;22;
47081;PMS5003;33066;49.296;14.470;2023-06-04T03:44:29;34;30;
47081;PMS5003;33066;49.296;14.470;2023-06-04T03:46:55;16;14;
47081;PMS5003;33066;49.296;14.470;2023-06-04T03:49:20;10;10;
47081;PMS5003;33066;49.296;14.470;2023-06-04T03:51:46;11;9;
47081;PMS5003;33066;49.296;14.470;2023-06-04T03:54:11;10;8;
47081;PMS5003;33066;49.296;14.470;2023-06-04T03:56:36;6;6;
47081;PMS5003;33066;49.296;14.470;2023-06-04T03:59:01;6;6;
47081;PMS5003;33066;49.296;14.470;2023-06-04T04:01:26;8;6;
47081;PMS5003;33066;49.296;14.470;2023-06-04T04:03:52;10;5;
47081;PMS5003;33066;49.296;14.470;2023-06-04T04:06:18;7;6;
47081;PMS5003;33066;49.296;14.470;2023-06-04T04:08:44;6;6;
47081;PMS5003;33066;49.296;14.470;2023-06-04T04:11:09;4;4;
47081;PMS5003;33066;49.296;14.470;2023-06-04T04:13:34;8;6;
47081;PMS5003;33066;49.296;14.470;2023-06-04T04:15:59;8;6;
47081;PMS5003;33066;49.296;14.470;2023-06-04T04:18:24;7;6;
47081;PMS5003;33066;49.296;14.470;2023-06-04T04:20:50;7;5;
47081;PMS5003;33066;49.296;14.470;2023-06-04T04:23:15;5;5;
47081;PMS5003;33066;49.296;14.470;2023-06-04T04:25:40;5;4;
47081;PMS5003;33066;49.296;14.470;2023-06-04T04:28:06;8;8;
47081;PMS5003;33066;49.296;14.470;2023-06-04T04:30:31;6;6;
47081;PMS5003;33066;49.296;14.470;2023-06-04T04:32:57;5;5;
47081;PMS5003;33066;49.296;14.470;2023-06-04T04:35:22;7;7;
47081;PMS5003;33066;49.296;14.470;2023-06-04T04:37:47;12;9;
47081;PMS5003;33066;49.296;14.470;2023-06-04T04:40:12;8;6;
47081;PMS5003;33066;49.296;14.470;2023-06-04T04:42:38;10;7;
47081;PMS5003;33066;49.296;14.470;2023-06-04T04:45:03;6;5;
47081;PMS5003;33066;49.296;14.470;2023-06-04T04:47:28;9;7;
47081;PMS5003;33066;49.296;14.470;2023-06-04T04:49:54;10;10;
47081;PMS5003;33066;49.296;14.470;2023-06-04T04:52:19;4;4;
47081;PMS5003;33066;49.296;14.470;2023-06-04T04:54:44;6;6;
47081;PMS5003;33066;49.296;14.470;2023-06-04T04:57:10;6;6;
47081;PMS5003;33066;49.296;14.470;2023-06-04T04:59:35;7;7;
47081;PMS5003;33066;49.296;14.470;2023-06-04T05:02:00;6;6;
47081;PMS5003;33066;49.296;14.470;2023-06-04T05:04:25;5;5;
47081;PMS5003;33066;49.296;14.470;2023-06-04T05:06:50;9;8;
47081;PMS5003;33066;49.296;14.470;2023-06-04T05:09:16;13;10;
47081;PMS5003;33066;49.296;14.470;2023-06-04T05:11:42;7;5;
47081;PMS5003;33066;49.296;14.470;2023-06-04T05:14:07;5;5;
47081;PMS5003;33066;49.296;14.470;2023-06-04T05:16:32;10;6;
47081;PMS5003;33066;49.296;14.470;2023-06-04T05:18:57;6;6;
47081;PMS5003;33066;49.296;14.470;2023-06-04T05:21:23;6;4;
47081;PMS5003;33066;49.296;14.470;2023-06-04T05:23:49;6;6;
47081;PMS5003;33066;49.296;14.470;2023-06-04T05:26:14;6;5;
47081;PMS5003;33066;49.296;14.470;2023-06-04T05:28:39;7;7;
47081;PMS5003;33066;49.296;14.470;2023-06-04T05:31:04;10;8;
47081;PMS5003;33066;49.296;14.470;2023-06-04T05:33:30;5;5;
47081;PMS5003;33066;49.296;14.470;2023-06-04T05:35:55;4;4;
47081;PMS5003;33066;49.296;14.470;2023-06-04T05:38:20;6;6;
47081;PMS5003;33066;49.296;14.470;2023-06-04T05:40:46;5;5;
47081;PMS5003;33066;49.296;14.470;2023-06-04T05:43:11;8;6;
47081;PMS5003;33066;49.296;14.470;2023-06-04T05:45:36;4;4;
47081;PMS5003;33066;49.296;14.470;2023-06-04T05:48:01;6;5;
47081;PMS5003;33066;49.296;14.470;2023-06-04T05:50:27;6;6;
47081;PMS5003;33066;49.296;14.470;2023-06-04T05:52:51;5;5;
47081;PMS5003;33066;49.296;14.470;2023-06-04T05:55:17;6;5;
47081;PMS5003;33066;49.296;14.470;2023-06-04T05:57:42;5;5;
47081;PMS5003;33066;49.296;14.470;2023-06-04T06:00:07;5;5;
47081;PMS5003;33066;49.296;14.470;2023-06-04T06:02:32;4;4;
47081;PMS5003;33066;49.296;14.470;2023-06-04T06:04:57;5;4;
47081;PMS5003;33066;49.296;14.470;2023-06-04T06:07:23;6;5;
47081;PMS5003;33066;49.296;14.470;2023-06-04T06:09:48;5;4;
47081;PMS5003;33066;49.296;14.470;2023-06-04T06:12:13;2;2;
47081;PMS5003;33066;49.296;14.470;2023-06-04T06:14:38;5;5;
47081;PMS5003;33066;49.296;14.470;2023-06-04T06:17:03;6;4;
47081;PMS5003;33066;49.296;14.470;2023-06-04T06:19:28;3;3;
47081;PMS5003;33066;49.296;14.470;2023-06-04T06:21:54;5;5;
47081;PMS5003;33066;49.296;14.470;2023-06-04T06:24:19;6;3;
47081;PMS5003;33066;49.296;14.470;2023-06-04T06:26:44;5;5;
47081;PMS5003;33066;49.296;14.470;2023-06-04T06:29:09;4;4;
47081;PMS5003;33066;49.296;14.470;2023-06-04T06:31:34;6;3;
47081;PMS5003;33066;49.296;14.470;2023-06-04T06:33:59;5;4;
47081;PMS5003;33066;49.296;14.470;2023-06-04T06:36:24;5;3;
47081;PMS5003;33066;49.296;14.470;2023-06-04T06:38:50;3;3;
47081;PMS5003;33066;49.296;14.470;2023-06-04T06:41:15;8;6;
47081;PMS5003;33066;49.296;14.470;2023-06-04T06:43:40;5;5;
47081;PMS5003;33066;49.296;14.470;2023-06-04T06:46:05;5;4;
47081;PMS5003;33066;49.296;14.470;2023-06-04T06:48:31;4;4;
47081;PMS5003;33066;49.296;14.470;2023-06-04T06:50:56;8;5;
47081;PMS5003;33066;49.296;14.470;2023-06-04T06:53:21;3;3;
47081;PMS5003;33066;49.296;14.470;2023-06-04T06:55:46;2;2;
47081;PMS5003;33066;49.296;14.470;2023-06-04T06:58:11;3;3;
47081;PMS5003;33066;49.296;14.470;2023-06-04T07:00:36;4;4;
47081;PMS5003;33066;49.296;14.470;2023-06-04T07:03:01;5;4;
47081;PMS5003;33066;49.296;14.470;2023-06-04T07:05:27;4;4;
47081;PMS5003;33066;49.296;14.470;2023-06-04T07:07:52;6;6;
47081;PMS5003;33066;49.296;14.470;2023-06-04T07:10:17;4;4;
47081;PMS5003;33066;49.296;14.470;2023-06-04T07:12:42;4;4;
47081;PMS5003;33066;49.296;14.470;2023-06-04T07:15:07;3;3;
47081;PMS5003;33066;49.296;14.470;2023-06-04T07:17:32;5;3;
47081;PMS5003;33066;49.296;14.470;2023-06-04T07:19:57;5;5;
47081;PMS5003;33066;49.296;14.470;2023-06-04T07:22:22;6;4;
47081;PMS5003;33066;49.296;14.470;2023-06-04T07:24:48;11;9;
47081;PMS5003;33066;49.296;14.470;2023-06-04T07:27:14;4;4;
47081;PMS5003;33066;49.296;14.470;2023-06-04T07:29:38;2;2;
47081;PMS5003;33066;49.296;14.470;2023-06-04T07:32:04;4;3;
47081;PMS5003;33066;49.296;14.470;2023-06-04T07:34:29;5;4;
47081;PMS5003;33066;49.296;14.470;2023-06-04T07:36:54;4;4;
47081;PMS5003;33066;49.296;14.470;2023-06-04T07:39:19;2;2;
47081;PMS5003;33066;49.296;14.470;2023-06-04T07:41:44;5;4;
47081;PMS5003;33066;49.296;14.470;2023-06-04T07:44:09;5;5;
47081;PMS5003;33066;49.296;14.470;2023-06-04T07:46:35;5;3;
47081;PMS5003;33066;49.296;14.470;2023-06-04T07:49:00;5;4;
47081;PMS5003;33066;49.296;14.470;2023-06-04T07:51:25;2;2;
47081;PMS5003;33066;49.296;14.470;2023-06-04T07:53:50;3;3;
47081;PMS5003;33066;49.296;14.470;2023-06-04T07:56:16;5;4;
47081;PMS5003;33066;49.296;14.470;2023-06-04T07:58:41;5;3;
47081;PMS5003;33066;49.296;14.470;2023-06-04T08:01:06;4;4;
47081;PMS5003;33066;49.296;14.470;2023-06-04T08:03:31;2;2;
47081;PMS5003;33066;49.296;14.470;2023-06-04T08:05:56;3;3;
47081;PMS5003;33066;49.296;14.470;2023-06-04T08:08:21;3;3;
47081;PMS5003;33066;49.296;14.470;2023-06-04T08:10:47;4;2;
47081;PMS5003;33066;49.296;14.470;2023-06-04T08:13:12;3;3;
47081;PMS5003;33066;49.296;14.470;2023-06-04T08:15:37;4;3;
47081;PMS5003;33066;49.296;14.470;2023-06-04T08:18:02;2;2;
47081;PMS5003;33066;49.296;14.470;2023-06-04T08:20:27;3;3;
47081;PMS5003;33066;49.296;14.470;2023-06-04T08:22:53;4;4;
47081;PMS5003;33066;49.296;14.470;2023-06-04T08:25:18;4;3;
47081;PMS5003;33066;49.296;14.470;2023-06-04T08:27:43;2;1;
47081;PMS5003;33066;49.296;14.470;2023-06-04T08:30:08;3;3;
47081;PMS5003;33066;49.296;14.470;2023-06-04T08:32:33;3;3;
47081;PMS5003;33066;49.296;14.470;2023-06-04T08:34:58;4;4;
47081;PMS5003;33066;49.296;14.470;2023-06-04T08:37:23;4;3;
47081;PMS5003;33066;49.296;14.470;2023-06-04T08:39:48;4;3;
47081;PMS5003;33066;49.296;14.470;2023-06-04T08:42:15;2;2;
47081;PMS5003;33066;49.296;14.470;2023-06-04T08:44:38;4;4;
47081;PMS5003;33066;49.296;14.470;2023-06-04T08:47:04;4;3;
47081;PMS5003;33066;49.296;14.470;2023-06-04T08:49:29;3;3;
47081;PMS5003;33066;49.296;14.470;2023-06-04T08:51:54;4;3;
47081;PMS5003;33066;49.296;14.470;2023-06-04T08:54:19;5;3;
47081;PMS5003;33066;49.296;14.470;2023-06-04T08:56:44;3;2;
47081;PMS5003;33066;49.296;14.470;2023-06-04T08:59:09;3;3;
47081;PMS5003;33066;49.296;14.470;2023-06-04T09:01:34;4;4;
47081;PMS5003;33066;49.296;14.470;2023-06-04T09:04:01;3;3;
47081;PMS5003;33066;49.296;14.470;2023-06-04T09:06:24;2;2;
47081;PMS5003;33066;49.296;14.470;2023-06-04T09:08:49;3;3;
47081;PMS5003;33066;49.296;14.470;2023-06-04T09:11:14;2;2;
47081;PMS5003;33066;49.296;14.470;2023-06-04T09:13:39;3;3;
47081;PMS5003;33066;49.296;14.470;2023-06-04T09:16:05;2;2;
47081;PMS5003;33066;49.296;14.470;2023-06-04T09:18:30;6;5;
47081;PMS5003;33066;49.296;14.470;2023-06-04T09:21:00;5;4;
47081;PMS5003;33066;49.296;14.470;2023-06-04T09:23:20;3;2;
47081;PMS5003;33066;49.296;14.470;2023-06-04T09:25:45;3;3;
47081;PMS5003;33066;49.296;14.470;2023-06-04T09:28:10;3;3;
47081;PMS5003;33066;49.296;14.470;2023-06-04T09:30:35;2;2;
47081;PMS5003;33066;49.296;14.470;2023-06-04T09:35:25;2;2;
47081;PMS5003;33066;49.296;14.470;2023-06-04T09:37:52;4;4;
47081;PMS5003;33066;49.296;14.470;2023-06-04T09:40:15;2;2;
47081;PMS5003;33066;49.296;14.470;2023-06-04T09:42:42;4;4;
47081;PMS5003;33066;49.296;14.470;2023-06-04T09:45:06;3;2;
47081;PMS5003;33066;49.296;14.470;2023-06-04T09:49:56;5;3;
47081;PMS5003;33066;49.296;14.470;2023-06-04T09:52:20;3;2;
47081;PMS5003;33066;49.296;14.470;2023-06-04T09:54:45;3;3;
47081;PMS5003;33066;49.296;14.470;2023-06-04T09:57:14;2;2;
47081;PMS5003;33066;49.296;14.470;2023-06-04T09:59:37;3;3;
47081;PMS5003;33066;49.296;14.470;2023-06-04T10:02:01;4;4;
47081;PMS5003;33066;49.296;14.470;2023-06-04T10:04:26;3;3;
47081;PMS5003;33066;49.296;14.470;2023-06-04T10:06:51;3;3;
47081;PMS5003;33066;49.296;14.470;2023-06-04T10:09:16;3;3;
47081;PMS5003;33066;49.296;14.470;2023-06-04T10:11:42;3;2;
47081;PMS5003;33066;49.296;14.470;2023-06-04T10:14:07;4;4;
47081;PMS5003;33066;49.296;14.470;2023-06-04T10:16:31;5;2;
47081;PMS5003;33066;49.296;14.470;2023-06-04T10:18:56;6;4;
47081;PMS5003;33066;49.296;14.470;2023-06-04T10:21:21;3;3;
47081;PMS5003;33066;49.296;14.470;2023-06-04T10:23:46;6;5;
47081;PMS5003;33066;49.296;14.470;2023-06-04T10:26:13;4;4;
47081;PMS5003;33066;49.296;14.470;2023-06-04T10:28:38;4;3;
47081;PMS5003;33066;49.296;14.470;2023-06-04T10:31:03;3;3;
47081;PMS5003;33066;49.296;14.470;2023-06-04T10:33:29;6;5;
47081;PMS5003;33066;49.296;14.470;2023-06-04T10:35:55;7;4;
47081;PMS5003;33066;49.296;14.470;2023-06-04T10:38:21;2;2;
47081;PMS5003;33066;49.296;14.470;2023-06-04T10:40:47;4;4;
47081;PMS5003;33066;49.296;14.470;2023-06-04T10:43:13;4;4;
47081;PMS5003;33066;49.296;14.470;2023-06-04T10:45:38;4;4;
47081;PMS5003;33066;49.296;14.470;2023-06-04T10:48:05;4;3;
47081;PMS5003;33066;49.296;14.470;2023-06-04T10:50:30;5;5;
47081;PMS5003;33066;49.296;14.470;2023-06-04T10:52:56;3;2;
47081;PMS5003;33066;49.296;14.470;2023-06-04T10:55:22;4;4;
47081;PMS5003;33066;49.296;14.470;2023-06-04T10:57:51;3;3;
47081;PMS5003;33066;49.296;14.470;2023-06-04T11:00:13;1;1;
47081;PMS5003;33066;49.296;14.470;2023-06-04T11:05:05;5;3;
47081;PMS5003;33066;49.296;14.470;2023-06-04T11:09:56;3;3;
47081;PMS5003;33066;49.296;14.470;2023-06-04T11:12:22;3;3;
47081;PMS5003;33066;49.296;14.470;2023-06-04T11:14:53;4;3;
47081;PMS5003;33066;49.296;14.470;2023-06-04T11:17:14;4;2;
47081;PMS5003;33066;49.296;14.470;2023-06-04T11:19:39;6;6;
47081;PMS5003;33066;49.296;14.470;2023-06-04T11:22:05;3;3;
47081;PMS5003;33066;49.296;14.470;2023-06-04T11:24:31;4;4;
47081;PMS5003;33066;49.296;14.470;2023-06-04T11:26:56;3;3;
47081;PMS5003;33066;49.296;14.470;2023-06-04T11:29:22;3;3;
47081;PMS5003;33066;49.296;14.470;2023-06-04T11:31:48;4;4;
47081;PMS5003;33066;49.296;14.470;2023-06-04T11:36:39;2;2;
47081;PMS5003;33066;49.296;14.470;2023-06-04T11:39:05;5;5;
47081;PMS5003;33066;49.296;14.470;2023-06-04T11:41:31;5;5;
47081;PMS5003;33066;49.296;14.470;2023-06-04T11:43:56;4;4;
47081;PMS5003;33066;49.296;14.470;2023-06-04T11:46:22;3;3;
47081;PMS5003;33066;49.296;14.470;2023-06-04T11:48:48;7;7;
47081;PMS5003;33066;49.296;14.470;2023-06-04T11:51:13;4;4;
47081;PMS5003;33066;49.296;14.470;2023-06-04T11:53:39;4;4;
47081;PMS5003;33066;49.296;14.470;2023-06-04T11:56:05;3;3;
47081;PMS5003;33066;49.296;14.470;2023-06-04T11:58:31;7;6;
47081;PMS5003;33066;49.296;14.470;2023-06-04T12:00:56;7;6;
47081;PMS5003;33066;49.296;14.470;2023-06-04T12:05:48;5;3;
47081;PMS5003;33066;49.296;14.470;2023-06-04T12:08:13;6;5;
47081;PMS5003;33066;49.296;14.470;2023-06-04T12:10:39;3;3;
47081;PMS5003;33066;49.296;14.470;2023-06-04T12:13:05;5;4;
47081;PMS5003;33066;49.296;14.470;2023-06-04T12:15:30;5;5;
47081;PMS5003;33066;49.296;14.470;2023-06-04T12:17:56;3;2;
47081;PMS5003;33066;49.296;14.470;2023-06-04T12:22:48;4;4;
47081;PMS5003;33066;49.296;14.470;2023-06-04T12:30:05;7;5;
47081;PMS5003;33066;49.296;14.470;2023-06-04T12:32:34;4;3;
47081;PMS5003;33066;49.296;14.470;2023-06-04T12:34:56;8;5;
47081;PMS5003;33066;49.296;14.470;2023-06-04T12:37:21;3;3;
47081;PMS5003;33066;49.296;14.470;2023-06-04T12:39:47;4;4;
47081;PMS5003;33066;49.296;14.470;2023-06-04T12:42:13;3;3;
47081;PMS5003;33066;49.296;14.470;2023-06-04T12:44:39;7;7;
47081;PMS5003;33066;49.296;14.470;2023-06-04T12:47:05;7;7;
47081;PMS5003;33066;49.296;14.470;2023-06-04T12:49:30;7;7;
47081;PMS5003;33066;49.296;14.470;2023-06-04T12:51:55;7;7;
47081;PMS5003;33066;49.296;14.470;2023-06-04T12:54:21;7;7;
47081;PMS5003;33066;49.296;14.470;2023-06-04T12:56:47;4;4;
47081;PMS5003;33066;49.296;14.470;2023-06-04T12:59:13;4;4;
47081;PMS5003;33066;49.296;14.470;2023-06-04T13:01:38;6;6;
47081;PMS5003;33066;49.296;14.470;2023-06-04T13:04:04;2;2;
47081;PMS5003;33066;49.296;14.470;2023-06-04T13:06:30;4;4;
47081;PMS5003;33066;49.296;14.470;2023-06-04T13:08:55;5;5;
47081;PMS5003;33066;49.296;14.470;2023-06-04T13:11:21;3;3;
47081;PMS5003;33066;49.296;14.470;2023-06-04T13:13:47;4;4;
47081;PMS5003;33066;49.296;14.470;2023-06-04T13:16:12;4;4;
47081;PMS5003;33066;49.296;14.470;2023-06-04T13:18:38;4;4;
47081;PMS5003;33066;49.296;14.470;2023-06-04T13:21:04;4;4;
47081;PMS5003;33066;49.296;14.470;2023-06-04T13:23:29;4;4;
47081;PMS5003;33066;49.296;14.470;2023-06-04T13:25:55;6;6;
47081;PMS5003;33066;49.296;14.470;2023-06-04T13:28:21;5;5;
47081;PMS5003;33066;49.296;14.470;2023-06-04T13:30:46;5;5;
47081;PMS5003;33066;49.296;14.470;2023-06-04T13:33:12;4;4;
47081;PMS5003;33066;49.296;14.470;2023-06-04T13:35:38;8;6;
47081;PMS5003;33066;49.296;14.470;2023-06-04T13:38:04;3;3;
47081;PMS5003;33066;49.296;14.470;2023-06-04T13:40:29;3;3;
47081;PMS5003;33066;49.296;14.470;2023-06-04T13:42:55;2;2;
47081;PMS5003;33066;49.296;14.470;2023-06-04T13:45:20;6;6;
47081;PMS5003;33066;49.296;14.470;2023-06-04T13:47:46;6;6;
47081;PMS5003;33066;49.296;14.470;2023-06-04T13:50:12;4;4;
47081;PMS5003;33066;49.296;14.470;2023-06-04T13:52:37;4;4;
47081;PMS5003;33066;49.296;14.470;2023-06-04T13:55:03;5;5;
47081;PMS5003;33066;49.296;14.470;2023-06-04T13:57:29;5;5;
47081;PMS5003;33066;49.296;14.470;2023-06-04T13:59:54;6;6;
47081;PMS5003;33066;49.296;14.470;2023-06-04T14:02:20;3;3;
47081;PMS5003;33066;49.296;14.470;2023-06-04T14:04:46;4;4;
47081;PMS5003;33066;49.296;14.470;2023-06-04T14:07:11;6;6;
47081;PMS5003;33066;49.296;14.470;2023-06-04T14:09:37;6;6;
47081;PMS5003;33066;49.296;14.470;2023-06-04T14:12:03;4;4;
47081;PMS5003;33066;49.296;14.470;2023-06-04T14:14:28;10;10;
47081;PMS5003;33066;49.296;14.470;2023-06-04T14:16:54;21;20;
47081;PMS5003;33066;49.296;14.470;2023-06-04T14:19:20;7;5;
47081;PMS5003;33066;49.296;14.470;2023-06-04T14:21:45;3;3;
47081;PMS5003;33066;49.296;14.470;2023-06-04T14:24:11;8;5;
47081;PMS5003;33066;49.296;14.470;2023-06-04T14:26:37;5;5;
47081;PMS5003;33066;49.296;14.470;2023-06-04T14:29:03;5;5;
47081;PMS5003;33066;49.296;14.470;2023-06-04T14:31:28;9;7;
47081;PMS5003;33066;49.296;14.470;2023-06-04T14:33:54;4;4;
47081;PMS5003;33066;49.296;14.470;2023-06-04T14:36:20;6;5;
47081;PMS5003;33066;49.296;14.470;2023-06-04T14:38:46;3;3;
47081;PMS5003;33066;49.296;14.470;2023-06-04T14:41:11;6;6;
47081;PMS5003;33066;49.296;14.470;2023-06-04T14:43:37;6;6;
47081;PMS5003;33066;49.296;14.470;2023-06-04T14:46:02;5;4;
47081;PMS5003;33066;49.296;14.470;2023-06-04T14:48:28;5;5;
47081;PMS5003;33066;49.296;14.470;2023-06-04T14:50:54;5;5;
47081;PMS5003;33066;49.296;14.470;2023-06-04T14:53:19;5;5;
47081;PMS5003;33066;49.296;14.470;2023-06-04T14:55:45;5;4;
47081;PMS5003;33066;49.296;14.470;2023-06-04T14:58:11;4;4;
47081;PMS5003;33066;49.296;14.470;2023-06-04T15:00:36;5;5;
47081;PMS5003;33066;49.296;14.470;2023-06-04T15:03:02;8;6;
47081;PMS5003;33066;49.296;14.470;2023-06-04T15:05:28;7;3;
47081;PMS5003;33066;49.296;14.470;2023-06-04T15:07:53;6;6;
47081;PMS5003;33066;49.296;14.470;2023-06-04T15:10:19;7;5;
47081;PMS5003;33066;49.296;14.470;2023-06-04T15:12:45;7;6;
47081;PMS5003;33066;49.296;14.470;2023-06-04T15:15:10;6;6;
47081;PMS5003;33066;49.296;14.470;2023-06-04T15:17:36;7;7;
47081;PMS5003;33066;49.296;14.470;2023-06-04T15:20:01;10;8;
47081;PMS5003;33066;49.296;14.470;2023-06-04T15:22:27;22;22;
47081;PMS5003;33066;49.296;14.470;2023-06-04T15:24:52;24;22;
47081;PMS5003;33066;49.296;14.470;2023-06-04T15:27:18;15;13;
47081;PMS5003;33066;49.296;14.470;2023-06-04T15:29:43;10;10;
47081;PMS5003;33066;49.296;14.470;2023-06-04T15:32:09;10;10;
47081;PMS5003;33066;49.296;14.470;2023-06-04T15:34:34;14;13;
47081;PMS5003;33066;49.296;14.470;2023-06-04T15:37:00;25;22;
47081;PMS5003;33066;49.296;14.470;2023-06-04T15:39:26;18;15;
47081;PMS5003;33066;49.296;14.470;2023-06-04T15:41:51;15;15;
47081;PMS5003;33066;49.296;14.470;2023-06-04T15:44:16;26;24;
47081;PMS5003;33066;49.296;14.470;2023-06-04T15:46:42;10;10;
47081;PMS5003;33066;49.296;14.470;2023-06-04T15:49:08;33;33;
47081;PMS5003;33066;49.296;14.470;2023-06-04T15:51:33;10;10;
47081;PMS5003;33066;49.296;14.470;2023-06-04T15:53:59;12;12;
47081;PMS5003;33066;49.296;14.470;2023-06-04T15:56:24;20;19;
47081;PMS5003;33066;49.296;14.470;2023-06-04T15:58:50;21;21;
47081;PMS5003;33066;49.296;14.470;2023-06-04T16:01:15;18;16;
47081;PMS5003;33066;49.296;14.470;2023-06-04T16:03:41;24;22;
47081;PMS5003;33066;49.296;14.470;2023-06-04T16:06:07;18;16;
47081;PMS5003;33066;49.296;14.470;2023-06-04T16:08:32;21;20;
47081;PMS5003;33066;49.296;14.470;2023-06-04T16:10:58;25;25;
47081;PMS5003;33066;49.296;14.470;2023-06-04T16:13:23;16;16;
47081;PMS5003;33066;49.296;14.470;2023-06-04T16:15:49;15;15;
47081;PMS5003;33066;49.296;14.470;2023-06-04T16:18:14;13;11;
47081;PMS5003;33066;49.296;14.470;2023-06-04T16:20:39;15;12;
47081;PMS5003;33066;49.296;14.470;2023-06-04T16:23:05;24;23;
47081;PMS5003;33066;49.296;14.470;2023-06-04T16:25:31;23;22;
47081;PMS5003;33066;49.296;14.470;2023-06-04T16:27:56;19;18;
47081;PMS5003;33066;49.296;14.470;2023-06-04T16:30:22;68;67;
47081;PMS5003;33066;49.296;14.470;2023-06-04T16:32:47;7;7;
47081;PMS5003;33066;49.296;14.470;2023-06-04T16:35:13;7;7;
47081;PMS5003;33066;49.296;14.470;2023-06-04T16:37:38;7;7;